sensor_id;sensor_type;location;lat;lon;timestamp;P1;durP1;ratioP1;P2;durP2;ratioP2
81211;SDS011;70686;52.494;13.420;2023-08-08T00:00:00;2.10;;;1.70;;
81211;SDS011;70686;52.494;13.420;2023-08-08T00:02:26;5.95;;;2.30;;
81211;SDS011;70686;52.494;13.420;2023-08-08T00:04:52;7.30;;;2.13;;
81211;SDS011;70686;52.494;13.420;2023-08-08T00:07:18;4.63;;;2.47;;
81211;SDS011;70686;52.494;13.420;2023-08-08T00:09:44;5.50;;;2.50;;
81211;SDS011;70686;52.494;13.420;2023-08-08T00:12:10;4.53;;;2.30;;
81211;SDS011;70686;52.494;13.420;2023-08-08T00:14:36;5.32;;;2.03;;
81211;SDS011;70686;52.494;13.420;2023-08-08T00:17:02;3.83;;;2.25;;
81211;SDS011;70686;52.494;13.420;2023-08-08T00:19:28;5.32;;;2.45;;
81211;SDS011;70686;52.494;13.420;2023-08-08T00:21:57;4.93;;;2.30;;
81211;SDS011;70686;52.494;13.420;2023-08-08T00:24:23;4.28;;;2.42;;
81211;SDS011;70686;52.494;13.420;2023-08-08T00:26:49;4.35;;;2.20;;
81211;SDS011;70686;52.494;13.420;2023-08-08T00:29:15;7.00;;;2.28;;
81211;SDS011;70686;52.494;13.420;2023-08-08T00:31:41;6.32;;;2.30;;
81211;SDS011;70686;52.494;13.420;2023-08-08T00:34:07;3.42;;;2.20;;
81211;SDS011;70686;52.494;13.420;2023-08-08T00:36:33;4.38;;;2.30;;
81211;SDS011;70686;52.494;13.420;2023-08-08T00:38:59;4.10;;;1.90;;
81211;SDS011;70686;52.494;13.420;2023-08-08T00:41:25;6.45;;;2.50;;
81211;SDS011;70686;52.494;13.420;2023-08-08T00:43:51;5.05;;;2.70;;
81211;SDS011;70686;52.494;13.420;2023-08-08T00:46:21;5.03;;;2.13;;
81211;SDS011;70686;52.494;13.420;2023-08-08T00:48:47;4.78;;;2.75;;
81211;SDS011;70686;52.494;13.420;2023-08-08T00:51:13;3.20;;;2.00;;
81211;SDS011;70686;52.494;13.420;2023-08-08T00:53:39;6.25;;;2.38;;
81211;SDS011;70686;52.494;13.420;2023-08-08T00:56:05;4.72;;;2.10;;
81211;SDS011;70686;52.494;13.420;2023-08-08T00:58:31;2.67;;;1.77;;
81211;SDS011;70686;52.494;13.420;2023-08-08T01:00:57;4.60;;;2.35;;
81211;SDS011;70686;52.494;13.420;2023-08-08T01:03:25;4.03;;;1.98;;
81211;SDS011;70686;52.494;13.420;2023-08-08T01:05:53;4.78;;;2.30;;
81211;SDS011;70686;52.494;13.420;2023-08-08T01:08:24;6.85;;;2.08;;
81211;SDS011;70686;52.494;13.420;2023-08-08T01:10:52;3.90;;;2.70;;
81211;SDS011;70686;52.494;13.420;2023-08-08T01:13:19;6.75;;;2.08;;
81211;SDS011;70686;52.494;13.420;2023-08-08T01:15:46;6.25;;;2.40;;
81211;SDS011;70686;52.494;13.420;2023-08-08T01:18:14;3.58;;;1.90;;
81211;SDS011;70686;52.494;13.420;2023-08-08T01:20:40;4.43;;;2.20;;
81211;SDS011;70686;52.494;13.420;2023-08-08T01:23:18;3.35;;;2.50;;
81211;SDS011;70686;52.494;13.420;2023-08-08T01:25:45;5.75;;;2.20;;
81211;SDS011;70686;52.494;13.420;2023-08-08T01:28:12;3.63;;;2.30;;
81211;SDS011;70686;52.494;13.420;2023-08-08T01:30:38;5.57;;;2.00;;
81211;SDS011;70686;52.494;13.420;2023-08-08T01:33:04;3.65;;;1.73;;
81211;SDS011;70686;52.494;13.420;2023-08-08T01:35:31;5.05;;;1.95;;
81211;SDS011;70686;52.494;13.420;2023-08-08T01:38:00;4.93;;;2.20;;
81211;SDS011;70686;52.494;13.420;2023-08-08T01:40:31;3.33;;;1.73;;
81211;SDS011;70686;52.494;13.420;2023-08-08T01:42:57;3.63;;;1.88;;
81211;SDS011;70686;52.494;13.420;2023-08-08T01:45:24;3.55;;;1.85;;
81211;SDS011;70686;52.494;13.420;2023-08-08T01:47:52;4.30;;;2.05;;
81211;SDS011;70686;52.494;13.420;2023-08-08T01:50:19;3.35;;;1.73;;
81211;SDS011;70686;52.494;13.420;2023-08-08T01:52:46;3.80;;;2.03;;
81211;SDS011;70686;52.494;13.420;2023-08-08T01:55:12;3.50;;;2.10;;
81211;SDS011;70686;52.494;13.420;2023-08-08T01:57:42;5.93;;;2.22;;
81211;SDS011;70686;52.494;13.420;2023-08-08T02:00:08;5.97;;;2.00;;
81211;SDS011;70686;52.494;13.420;2023-08-08T02:02:34;4.10;;;1.73;;
81211;SDS011;70686;52.494;13.420;2023-08-08T02:05:01;3.35;;;1.88;;
81211;SDS011;70686;52.494;13.420;2023-08-08T02:07:27;5.78;;;2.15;;
81211;SDS011;70686;52.494;13.420;2023-08-08T02:09:53;5.22;;;1.73;;
81211;SDS011;70686;52.494;13.420;2023-08-08T02:12:20;2.53;;;1.88;;
81211;SDS011;70686;52.494;13.420;2023-08-08T02:14:46;2.17;;;1.73;;
81211;SDS011;70686;52.494;13.420;2023-08-08T02:17:16;2.25;;;1.50;;
81211;SDS011;70686;52.494;13.420;2023-08-08T02:19:42;2.85;;;2.10;;
81211;SDS011;70686;52.494;13.420;2023-08-08T02:22:08;4.38;;;1.90;;
81211;SDS011;70686;52.494;13.420;2023-08-08T02:24:34;5.00;;;1.85;;
81211;SDS011;70686;52.494;13.420;2023-08-08T02:27:00;3.85;;;1.70;;
81211;SDS011;70686;52.494;13.420;2023-08-08T02:29:27;3.80;;;1.70;;
81211;SDS011;70686;52.494;13.420;2023-08-08T02:31:53;2.85;;;1.45;;
81211;SDS011;70686;52.494;13.420;2023-08-08T02:34:19;3.55;;;1.83;;
81211;SDS011;70686;52.494;13.420;2023-08-08T02:36:45;2.78;;;2.00;;
81211;SDS011;70686;52.494;13.420;2023-08-08T02:39:11;2.42;;;2.00;;
81211;SDS011;70686;52.494;13.420;2023-08-08T02:41:37;4.25;;;1.90;;
81211;SDS011;70686;52.494;13.420;2023-08-08T02:44:03;3.33;;;1.63;;
81211;SDS011;70686;52.494;13.420;2023-08-08T02:46:29;3.33;;;1.70;;
81211;SDS011;70686;52.494;13.420;2023-08-08T02:48:55;5.05;;;2.35;;
81211;SDS011;70686;52.494;13.420;2023-08-08T02:51:21;5.80;;;1.95;;
81211;SDS011;70686;52.494;13.420;2023-08-08T02:53:48;5.28;;;2.13;;
81211;SDS011;70686;52.494;13.420;2023-08-08T02:56:14;5.15;;;2.05;;
81211;SDS011;70686;52.494;13.420;2023-08-08T02:58:40;5.53;;;2.45;;
81211;SDS011;70686;52.494;13.420;2023-08-08T03:01:06;3.97;;;2.25;;
81211;SDS011;70686;52.494;13.420;2023-08-08T03:03:32;3.20;;;1.90;;
81211;SDS011;70686;52.494;13.420;2023-08-08T03:06:00;4.30;;;1.98;;
81211;SDS011;70686;52.494;13.420;2023-08-08T03:08:27;5.25;;;2.38;;
81211;SDS011;70686;52.494;13.420;2023-08-08T03:10:53;3.67;;;2.10;;
81211;SDS011;70686;52.494;13.420;2023-08-08T03:13:19;6.85;;;2.85;;
81211;SDS011;70686;52.494;13.420;2023-08-08T03:15:47;4.40;;;2.38;;
81211;SDS011;70686;52.494;13.420;2023-08-08T03:18:13;4.78;;;2.60;;
81211;SDS011;70686;52.494;13.420;2023-08-08T03:20:39;4.38;;;2.15;;
81211;SDS011;70686;52.494;13.420;2023-08-08T03:23:06;2.92;;;1.75;;
81211;SDS011;70686;52.494;13.420;2023-08-08T03:25:32;6.40;;;2.30;;
81211;SDS011;70686;52.494;13.420;2023-08-08T03:27:58;2.92;;;2.20;;
81211;SDS011;70686;52.494;13.420;2023-08-08T03:30:26;6.55;;;2.50;;
81211;SDS011;70686;52.494;13.420;2023-08-08T03:32:53;2.88;;;2.25;;
81211;SDS011;70686;52.494;13.420;2023-08-08T03:35:21;3.33;;;2.45;;
81211;SDS011;70686;52.494;13.420;2023-08-08T03:37:48;3.10;;;2.03;;
81211;SDS011;70686;52.494;13.420;2023-08-08T03:40:14;4.68;;;2.72;;
81211;SDS011;70686;52.494;13.420;2023-08-08T03:42:40;3.22;;;2.35;;
81211;SDS011;70686;52.494;13.420;2023-08-08T03:45:07;4.78;;;2.75;;
81211;SDS011;70686;52.494;13.420;2023-08-08T03:47:33;7.63;;;2.55;;
81211;SDS011;70686;52.494;13.420;2023-08-08T03:49:59;5.35;;;2.05;;
81211;SDS011;70686;52.494;13.420;2023-08-08T03:52:25;3.85;;;2.60;;
81211;SDS011;70686;52.494;13.420;2023-08-08T03:54:52;4.45;;;2.33;;
81211;SDS011;70686;52.494;13.420;2023-08-08T03:57:18;4.90;;;2.20;;
81211;SDS011;70686;52.494;13.420;2023-08-08T03:59:44;3.78;;;2.20;;
81211;SDS011;70686;52.494;13.420;2023-08-08T04:02:16;4.35;;;1.98;;
81211;SDS011;70686;52.494;13.420;2023-08-08T04:04:43;4.53;;;2.38;;
81211;SDS011;70686;52.494;13.420;2023-08-08T04:07:09;4.43;;;2.50;;
81211;SDS011;70686;52.494;13.420;2023-08-08T04:09:35;4.57;;;2.17;;
81211;SDS011;70686;52.494;13.420;2023-08-08T04:12:01;4.28;;;2.30;;
81211;SDS011;70686;52.494;13.420;2023-08-08T04:14:27;6.00;;;2.50;;
81211;SDS011;70686;52.494;13.420;2023-08-08T04:16:53;3.22;;;2.17;;
81211;SDS011;70686;52.494;13.420;2023-08-08T04:19:20;8.60;;;2.20;;
81211;SDS011;70686;52.494;13.420;2023-08-08T04:21:46;4.88;;;2.42;;
81211;SDS011;70686;52.494;13.420;2023-08-08T04:24:12;5.03;;;2.45;;
81211;SDS011;70686;52.494;13.420;2023-08-08T04:26:38;3.78;;;2.55;;
81211;SDS011;70686;52.494;13.420;2023-08-08T04:29:05;3.30;;;2.22;;
81211;SDS011;70686;52.494;13.420;2023-08-08T04:31:31;5.28;;;2.70;;
81211;SDS011;70686;52.494;13.420;2023-08-08T04:33:57;5.03;;;2.33;;
81211;SDS011;70686;52.494;13.420;2023-08-08T04:36:26;6.10;;;2.42;;
81211;SDS011;70686;52.494;13.420;2023-08-08T04:38:55;2.92;;;2.25;;
81211;SDS011;70686;52.494;13.420;2023-08-08T04:41:21;5.03;;;3.03;;
81211;SDS011;70686;52.494;13.420;2023-08-08T04:43:47;5.05;;;2.55;;
81211;SDS011;70686;52.494;13.420;2023-08-08T04:46:14;5.68;;;2.50;;
81211;SDS011;70686;52.494;13.420;2023-08-08T04:48:43;5.80;;;2.63;;
81211;SDS011;70686;52.494;13.420;2023-08-08T04:51:09;3.38;;;1.92;;
81211;SDS011;70686;52.494;13.420;2023-08-08T04:53:35;3.80;;;2.45;;
81211;SDS011;70686;52.494;13.420;2023-08-08T04:56:02;4.35;;;2.50;;
81211;SDS011;70686;52.494;13.420;2023-08-08T04:58:29;4.10;;;2.38;;
81211;SDS011;70686;52.494;13.420;2023-08-08T05:00:55;4.30;;;2.20;;
81211;SDS011;70686;52.494;13.420;2023-08-08T05:03:21;4.20;;;2.50;;
81211;SDS011;70686;52.494;13.420;2023-08-08T05:05:48;5.28;;;2.30;;
81211;SDS011;70686;52.494;13.420;2023-08-08T05:08:14;3.85;;;2.45;;
81211;SDS011;70686;52.494;13.420;2023-08-08T05:10:40;4.55;;;2.38;;
81211;SDS011;70686;52.494;13.420;2023-08-08T05:13:06;4.30;;;2.85;;
81211;SDS011;70686;52.494;13.420;2023-08-08T05:15:32;4.40;;;2.33;;
81211;SDS011;70686;52.494;13.420;2023-08-08T05:17:58;3.97;;;2.15;;
81211;SDS011;70686;52.494;13.420;2023-08-08T05:20:24;6.15;;;2.80;;
81211;SDS011;70686;52.494;13.420;2023-08-08T05:22:51;6.47;;;2.53;;
81211;SDS011;70686;52.494;13.420;2023-08-08T05:25:20;5.75;;;2.45;;
81211;SDS011;70686;52.494;13.420;2023-08-08T05:27:47;6.00;;;2.70;;
81211;SDS011;70686;52.494;13.420;2023-08-08T05:30:14;4.50;;;2.38;;
81211;SDS011;70686;52.494;13.420;2023-08-08T05:32:41;5.57;;;2.42;;
81211;SDS011;70686;52.494;13.420;2023-08-08T05:35:07;4.57;;;2.42;;
81211;SDS011;70686;52.494;13.420;2023-08-08T05:37:33;5.40;;;2.70;;
81211;SDS011;70686;52.494;13.420;2023-08-08T05:39:59;4.70;;;2.53;;
81211;SDS011;70686;52.494;13.420;2023-08-08T05:42:26;4.53;;;2.60;;
81211;SDS011;70686;52.494;13.420;2023-08-08T05:44:52;6.25;;;2.70;;
81211;SDS011;70686;52.494;13.420;2023-08-08T05:47:18;4.78;;;2.50;;
81211;SDS011;70686;52.494;13.420;2023-08-08T05:49:44;3.60;;;2.60;;
81211;SDS011;70686;52.494;13.420;2023-08-08T05:52:10;3.92;;;2.33;;
81211;SDS011;70686;52.494;13.420;2023-08-08T05:54:37;4.15;;;2.60;;
81211;SDS011;70686;52.494;13.420;2023-08-08T05:57:03;3.95;;;2.22;;
81211;SDS011;70686;52.494;13.420;2023-08-08T05:59:29;4.45;;;2.13;;
81211;SDS011;70686;52.494;13.420;2023-08-08T06:01:55;3.95;;;2.40;;
81211;SDS011;70686;52.494;13.420;2023-08-08T06:04:22;5.53;;;2.75;;
81211;SDS011;70686;52.494;13.420;2023-08-08T06:06:48;3.97;;;2.58;;
81211;SDS011;70686;52.494;13.420;2023-08-08T06:09:15;5.10;;;2.55;;
81211;SDS011;70686;52.494;13.420;2023-08-08T06:11:42;3.35;;;2.50;;
81211;SDS011;70686;52.494;13.420;2023-08-08T06:14:11;4.32;;;2.65;;
81211;SDS011;70686;52.494;13.420;2023-08-08T06:16:37;3.83;;;2.65;;
81211;SDS011;70686;52.494;13.420;2023-08-08T06:19:03;5.07;;;2.80;;
81211;SDS011;70686;52.494;13.420;2023-08-08T06:21:29;4.18;;;2.65;;
81211;SDS011;70686;52.494;13.420;2023-08-08T06:23:55;6.40;;;2.83;;
81211;SDS011;70686;52.494;13.420;2023-08-08T06:26:22;3.75;;;2.40;;
81211;SDS011;70686;52.494;13.420;2023-08-08T06:28:48;3.80;;;2.63;;
81211;SDS011;70686;52.494;13.420;2023-08-08T06:31:22;4.93;;;2.95;;
81211;SDS011;70686;52.494;13.420;2023-08-08T06:33:48;5.63;;;2.63;;
81211;SDS011;70686;52.494;13.420;2023-08-08T06:36:15;4.38;;;2.83;;
81211;SDS011;70686;52.494;13.420;2023-08-08T06:38:41;3.03;;;2.40;;
81211;SDS011;70686;52.494;13.420;2023-08-08T06:41:08;3.60;;;2.90;;
81211;SDS011;70686;52.494;13.420;2023-08-08T06:43:34;4.05;;;2.70;;
81211;SDS011;70686;52.494;13.420;2023-08-08T06:46:00;6.90;;;3.05;;
81211;SDS011;70686;52.494;13.420;2023-08-08T06:48:26;5.10;;;2.95;;
81211;SDS011;70686;52.494;13.420;2023-08-08T06:50:53;3.00;;;2.47;;
81211;SDS011;70686;52.494;13.420;2023-08-08T06:53:19;4.80;;;2.67;;
81211;SDS011;70686;52.494;13.420;2023-08-08T06:55:48;4.78;;;2.70;;
81211;SDS011;70686;52.494;13.420;2023-08-08T06:58:14;5.72;;;3.00;;
81211;SDS011;70686;52.494;13.420;2023-08-08T07:00:40;4.82;;;2.65;;
81211;SDS011;70686;52.494;13.420;2023-08-08T07:03:06;5.28;;;2.50;;
81211;SDS011;70686;52.494;13.420;2023-08-08T07:05:33;21.25;;;4.65;;
81211;SDS011;70686;52.494;13.420;2023-08-08T07:07:59;4.47;;;2.60;;
81211;SDS011;70686;52.494;13.420;2023-08-08T07:10:25;6.63;;;3.22;;
81211;SDS011;70686;52.494;13.420;2023-08-08T07:12:52;3.78;;;2.72;;
81211;SDS011;70686;52.494;13.420;2023-08-08T07:15:19;5.40;;;2.40;;
81211;SDS011;70686;52.494;13.420;2023-08-08T07:17:45;4.15;;;2.33;;
81211;SDS011;70686;52.494;13.420;2023-08-08T07:20:11;9.82;;;2.60;;
81211;SDS011;70686;52.494;13.420;2023-08-08T07:22:40;6.10;;;2.80;;
81211;SDS011;70686;52.494;13.420;2023-08-08T07:25:07;5.55;;;2.63;;
81211;SDS011;70686;52.494;13.420;2023-08-08T07:27:34;4.05;;;2.90;;
81211;SDS011;70686;52.494;13.420;2023-08-08T07:30:00;3.75;;;2.67;;
81211;SDS011;70686;52.494;13.420;2023-08-08T07:32:27;4.00;;;2.63;;
81211;SDS011;70686;52.494;13.420;2023-08-08T07:34:54;4.63;;;2.78;;
81211;SDS011;70686;52.494;13.420;2023-08-08T07:37:22;3.80;;;2.45;;
81211;SDS011;70686;52.494;13.420;2023-08-08T07:39:51;9.48;;;2.95;;
81211;SDS011;70686;52.494;13.420;2023-08-08T07:42:18;4.68;;;3.10;;
81211;SDS011;70686;52.494;13.420;2023-08-08T07:44:44;4.43;;;2.53;;
81211;SDS011;70686;52.494;13.420;2023-08-08T07:47:10;3.95;;;2.95;;
81211;SDS011;70686;52.494;13.420;2023-08-08T07:49:36;3.85;;;2.60;;
81211;SDS011;70686;52.494;13.420;2023-08-08T07:52:02;2.55;;;2.20;;
81211;SDS011;70686;52.494;13.420;2023-08-08T07:54:28;4.50;;;2.55;;
81211;SDS011;70686;52.494;13.420;2023-08-08T07:56:54;6.57;;;3.20;;
81211;SDS011;70686;52.494;13.420;2023-08-08T07:59:21;4.00;;;2.65;;
81211;SDS011;70686;52.494;13.420;2023-08-08T08:01:47;4.07;;;2.95;;
81211;SDS011;70686;52.494;13.420;2023-08-08T08:04:13;7.47;;;3.30;;
81211;SDS011;70686;52.494;13.420;2023-08-08T08:06:39;6.82;;;2.70;;
81211;SDS011;70686;52.494;13.420;2023-08-08T08:09:05;4.72;;;3.03;;
81211;SDS011;70686;52.494;13.420;2023-08-08T08:11:31;6.30;;;3.08;;
81211;SDS011;70686;52.494;13.420;2023-08-08T08:13:57;4.85;;;3.10;;
81211;SDS011;70686;52.494;13.420;2023-08-08T08:16:23;3.55;;;2.60;;
81211;SDS011;70686;52.494;13.420;2023-08-08T08:18:49;3.40;;;2.70;;
81211;SDS011;70686;52.494;13.420;2023-08-08T08:21:15;5.07;;;3.15;;
81211;SDS011;70686;52.494;13.420;2023-08-08T08:23:42;6.53;;;3.13;;
81211;SDS011;70686;52.494;13.420;2023-08-08T08:26:09;4.55;;;2.80;;
81211;SDS011;70686;52.494;13.420;2023-08-08T08:28:35;5.82;;;2.95;;
81211;SDS011;70686;52.494;13.420;2023-08-08T08:31:04;6.43;;;2.90;;
81211;SDS011;70686;52.494;13.420;2023-08-08T08:33:33;7.35;;;3.17;;
81211;SDS011;70686;52.494;13.420;2023-08-08T08:35:59;3.53;;;2.13;;
81211;SDS011;70686;52.494;13.420;2023-08-08T08:38:25;4.15;;;2.72;;
81211;SDS011;70686;52.494;13.420;2023-08-08T08:40:51;3.85;;;2.85;;
81211;SDS011;70686;52.494;13.420;2023-08-08T08:43:19;9.30;;;3.05;;
81211;SDS011;70686;52.494;13.420;2023-08-08T08:45:49;5.32;;;2.65;;
81211;SDS011;70686;52.494;13.420;2023-08-08T08:48:16;3.85;;;2.70;;
81211;SDS011;70686;52.494;13.420;2023-08-08T08:50:44;4.07;;;2.55;;
81211;SDS011;70686;52.494;13.420;2023-08-08T08:53:11;4.40;;;2.63;;
81211;SDS011;70686;52.494;13.420;2023-08-08T08:55:37;5.70;;;2.47;;
81211;SDS011;70686;52.494;13.420;2023-08-08T08:58:04;3.78;;;2.60;;
81211;SDS011;70686;52.494;13.420;2023-08-08T09:00:30;3.83;;;2.70;;
81211;SDS011;70686;52.494;13.420;2023-08-08T09:02:57;5.15;;;3.00;;
81211;SDS011;70686;52.494;13.420;2023-08-08T09:05:24;5.43;;;2.95;;
81211;SDS011;70686;52.494;13.420;2023-08-08T09:07:51;4.28;;;2.95;;
81211;SDS011;70686;52.494;13.420;2023-08-08T09:10:17;4.38;;;2.75;;
81211;SDS011;70686;52.494;13.420;2023-08-08T09:12:44;3.38;;;2.80;;
81211;SDS011;70686;52.494;13.420;2023-08-08T09:15:10;3.25;;;2.80;;
81211;SDS011;70686;52.494;13.420;2023-08-08T09:17:40;5.65;;;3.03;;
81211;SDS011;70686;52.494;13.420;2023-08-08T09:20:07;5.78;;;2.60;;
81211;SDS011;70686;52.494;13.420;2023-08-08T09:22:36;4.50;;;3.00;;
81211;SDS011;70686;52.494;13.420;2023-08-08T09:25:05;4.40;;;2.80;;
81211;SDS011;70686;52.494;13.420;2023-08-08T09:27:33;5.97;;;2.88;;
81211;SDS011;70686;52.494;13.420;2023-08-08T09:29:59;4.43;;;2.63;;
81211;SDS011;70686;52.494;13.420;2023-08-08T09:32:31;7.65;;;3.08;;
81211;SDS011;70686;52.494;13.420;2023-08-08T09:34:57;5.70;;;2.58;;
81211;SDS011;70686;52.494;13.420;2023-08-08T09:37:23;4.88;;;2.78;;
81211;SDS011;70686;52.494;13.420;2023-08-08T09:39:59;3.20;;;2.40;;
81211;SDS011;70686;52.494;13.420;2023-08-08T09:42:26;3.58;;;2.45;;
81211;SDS011;70686;52.494;13.420;2023-08-08T09:44:52;3.88;;;2.55;;
81211;SDS011;70686;52.494;13.420;2023-08-08T09:47:20;5.40;;;3.05;;
81211;SDS011;70686;52.494;13.420;2023-08-08T09:49:46;6.88;;;2.80;;
81211;SDS011;70686;52.494;13.420;2023-08-08T09:52:13;4.40;;;2.90;;
81211;SDS011;70686;52.494;13.420;2023-08-08T09:54:40;5.93;;;2.75;;
81211;SDS011;70686;52.494;13.420;2023-08-08T09:57:07;4.03;;;2.78;;
81211;SDS011;70686;52.494;13.420;2023-08-08T09:59:33;3.50;;;2.30;;
81211;SDS011;70686;52.494;13.420;2023-08-08T10:02:00;4.65;;;2.60;;
81211;SDS011;70686;52.494;13.420;2023-08-08T10:04:26;5.93;;;3.20;;
81211;SDS011;70686;52.494;13.420;2023-08-08T10:06:53;7.10;;;3.20;;
81211;SDS011;70686;52.494;13.420;2023-08-08T10:09:19;5.90;;;2.67;;
81211;SDS011;70686;52.494;13.420;2023-08-08T10:11:46;4.07;;;3.33;;
81211;SDS011;70686;52.494;13.420;2023-08-08T10:14:13;4.03;;;3.03;;
81211;SDS011;70686;52.494;13.420;2023-08-08T10:16:42;6.18;;;3.20;;
81211;SDS011;70686;52.494;13.420;2023-08-08T10:19:11;5.00;;;2.70;;
81211;SDS011;70686;52.494;13.420;2023-08-08T10:21:41;6.45;;;3.35;;
81211;SDS011;70686;52.494;13.420;2023-08-08T10:24:07;4.20;;;3.10;;
81211;SDS011;70686;52.494;13.420;2023-08-08T10:26:34;4.72;;;2.60;;
81211;SDS011;70686;52.494;13.420;2023-08-08T10:29:19;4.07;;;3.00;;
81211;SDS011;70686;52.494;13.420;2023-08-08T10:31:57;4.72;;;2.90;;
81211;SDS011;70686;52.494;13.420;2023-08-08T10:34:27;4.60;;;2.78;;
81211;SDS011;70686;52.494;13.420;2023-08-08T10:36:53;4.68;;;3.03;;
81211;SDS011;70686;52.494;13.420;2023-08-08T10:39:19;6.25;;;3.17;;
81211;SDS011;70686;52.494;13.420;2023-08-08T10:41:46;6.50;;;3.10;;
81211;SDS011;70686;52.494;13.420;2023-08-08T10:44:13;4.65;;;2.85;;
81211;SDS011;70686;52.494;13.420;2023-08-08T10:46:40;5.43;;;3.20;;
81211;SDS011;70686;52.494;13.420;2023-08-08T10:49:07;4.65;;;2.80;;
81211;SDS011;70686;52.494;13.420;2023-08-08T10:54:02;5.47;;;2.67;;
81211;SDS011;70686;52.494;13.420;2023-08-08T10:56:29;4.50;;;2.88;;
81211;SDS011;70686;52.494;13.420;2023-08-08T10:58:56;4.20;;;3.45;;
81211;SDS011;70686;52.494;13.420;2023-08-08T11:01:25;5.75;;;3.40;;
81211;SDS011;70686;52.494;13.420;2023-08-08T11:03:51;3.22;;;2.70;;
81211;SDS011;70686;52.494;13.420;2023-08-08T11:06:18;5.03;;;3.22;;
81211;SDS011;70686;52.494;13.420;2023-08-08T11:08:44;4.13;;;2.70;;
81211;SDS011;70686;52.494;13.420;2023-08-08T11:11:10;4.78;;;2.92;;
81211;SDS011;70686;52.494;13.420;2023-08-08T11:13:37;4.57;;;2.80;;
81211;SDS011;70686;52.494;13.420;2023-08-08T11:16:03;3.45;;;2.80;;
81211;SDS011;70686;52.494;13.420;2023-08-08T11:18:29;3.78;;;3.00;;
81211;SDS011;70686;52.494;13.420;2023-08-08T11:20:56;4.25;;;3.03;;
81211;SDS011;70686;52.494;13.420;2023-08-08T11:23:22;5.07;;;3.05;;
81211;SDS011;70686;52.494;13.420;2023-08-08T11:25:48;4.50;;;3.00;;
81211;SDS011;70686;52.494;13.420;2023-08-08T11:28:15;6.00;;;3.33;;
81211;SDS011;70686;52.494;13.420;2023-08-08T11:30:45;7.38;;;3.42;;
81211;SDS011;70686;52.494;13.420;2023-08-08T11:33:14;3.92;;;2.25;;
81211;SDS011;70686;52.494;13.420;2023-08-08T11:35:43;2.60;;;2.20;;
81211;SDS011;70686;52.494;13.420;2023-08-08T11:38:14;4.10;;;2.20;;
81211;SDS011;70686;52.494;13.420;2023-08-08T11:40:41;2.97;;;2.05;;
81211;SDS011;70686;52.494;13.420;2023-08-08T11:43:07;2.67;;;1.98;;
81211;SDS011;70686;52.494;13.420;2023-08-08T11:45:34;3.78;;;2.20;;
81211;SDS011;70686;52.494;13.420;2023-08-08T11:48:00;4.45;;;2.28;;
81211;SDS011;70686;52.494;13.420;2023-08-08T11:50:27;3.00;;;2.20;;
81211;SDS011;70686;52.494;13.420;2023-08-08T11:52:57;3.67;;;2.40;;
81211;SDS011;70686;52.494;13.420;2023-08-08T11:55:29;3.65;;;2.70;;
81211;SDS011;70686;52.494;13.420;2023-08-08T11:57:56;3.92;;;2.60;;
81211;SDS011;70686;52.494;13.420;2023-08-08T12:00:26;4.30;;;2.65;;
81211;SDS011;70686;52.494;13.420;2023-08-08T12:02:53;4.82;;;2.88;;
81211;SDS011;70686;52.494;13.420;2023-08-08T12:05:20;4.65;;;2.88;;
81211;SDS011;70686;52.494;13.420;2023-08-08T12:07:47;3.13;;;2.83;;
81211;SDS011;70686;52.494;13.420;2023-08-08T12:10:15;4.70;;;2.88;;
81211;SDS011;70686;52.494;13.420;2023-08-08T12:12:42;5.10;;;3.13;;
81211;SDS011;70686;52.494;13.420;2023-08-08T12:15:09;5.85;;;3.20;;
81211;SDS011;70686;52.494;13.420;2023-08-08T12:17:38;3.50;;;3.08;;
81211;SDS011;70686;52.494;13.420;2023-08-08T12:20:05;4.35;;;2.65;;
81211;SDS011;70686;52.494;13.420;2023-08-08T12:22:32;5.57;;;3.17;;
81211;SDS011;70686;52.494;13.420;2023-08-08T12:24:58;4.43;;;2.80;;
81211;SDS011;70686;52.494;13.420;2023-08-08T12:27:24;4.68;;;3.20;;
81211;SDS011;70686;52.494;13.420;2023-08-08T12:29:50;7.25;;;3.20;;
81211;SDS011;70686;52.494;13.420;2023-08-08T12:32:18;6.40;;;3.78;;
81211;SDS011;70686;52.494;13.420;2023-08-08T12:34:44;6.65;;;3.40;;
81211;SDS011;70686;52.494;13.420;2023-08-08T12:37:10;5.95;;;3.10;;
81211;SDS011;70686;52.494;13.420;2023-08-08T12:39:36;3.28;;;2.40;;
81211;SDS011;70686;52.494;13.420;2023-08-08T12:42:02;4.53;;;2.80;;
81211;SDS011;70686;52.494;13.420;2023-08-08T12:44:29;3.42;;;2.60;;
81211;SDS011;70686;52.494;13.420;2023-08-08T12:46:55;5.90;;;2.90;;
81211;SDS011;70686;52.494;13.420;2023-08-08T12:49:21;5.03;;;3.10;;
81211;SDS011;70686;52.494;13.420;2023-08-08T12:51:47;4.20;;;3.10;;
81211;SDS011;70686;52.494;13.420;2023-08-08T12:54:13;11.75;;;3.53;;
81211;SDS011;70686;52.494;13.420;2023-08-08T12:56:39;3.53;;;2.60;;
81211;SDS011;70686;52.494;13.420;2023-08-08T12:59:05;18.48;;;5.03;;
81211;SDS011;70686;52.494;13.420;2023-08-08T13:01:31;6.00;;;2.80;;
81211;SDS011;70686;52.494;13.420;2023-08-08T13:03:57;4.88;;;3.10;;
81211;SDS011;70686;52.494;13.420;2023-08-08T13:06:23;5.63;;;3.25;;
81211;SDS011;70686;52.494;13.420;2023-08-08T13:08:49;5.05;;;3.85;;
81211;SDS011;70686;52.494;13.420;2023-08-08T13:11:15;4.32;;;3.20;;
81211;SDS011;70686;52.494;13.420;2023-08-08T13:13:41;5.05;;;3.00;;
81211;SDS011;70686;52.494;13.420;2023-08-08T13:16:07;6.07;;;3.65;;
81211;SDS011;70686;52.494;13.420;2023-08-08T13:18:33;4.97;;;3.00;;
81211;SDS011;70686;52.494;13.420;2023-08-08T13:20:59;6.63;;;3.28;;
81211;SDS011;70686;52.494;13.420;2023-08-08T13:23:25;5.07;;;3.25;;
81211;SDS011;70686;52.494;13.420;2023-08-08T13:25:51;5.20;;;3.05;;
81211;SDS011;70686;52.494;13.420;2023-08-08T13:28:17;3.60;;;2.97;;
81211;SDS011;70686;52.494;13.420;2023-08-08T13:30:43;3.35;;;2.85;;
81211;SDS011;70686;52.494;13.420;2023-08-08T13:33:09;5.35;;;3.17;;
81211;SDS011;70686;52.494;13.420;2023-08-08T13:35:35;4.10;;;2.70;;
81211;SDS011;70686;52.494;13.420;2023-08-08T13:38:01;4.47;;;3.08;;
81211;SDS011;70686;52.494;13.420;2023-08-08T13:40:27;5.20;;;3.13;;
81211;SDS011;70686;52.494;13.420;2023-08-08T13:42:53;3.72;;;2.45;;
81211;SDS011;70686;52.494;13.420;2023-08-08T13:45:19;3.75;;;2.70;;
81211;SDS011;70686;52.494;13.420;2023-08-08T13:47:46;3.70;;;2.45;;
81211;SDS011;70686;52.494;13.420;2023-08-08T13:50:15;3.45;;;2.20;;
81211;SDS011;70686;52.494;13.420;2023-08-08T13:52:41;3.60;;;2.25;;
81211;SDS011;70686;52.494;13.420;2023-08-08T13:55:07;4.70;;;2.78;;
81211;SDS011;70686;52.494;13.420;2023-08-08T13:57:34;2.80;;;2.03;;
81211;SDS011;70686;52.494;13.420;2023-08-08T14:00:00;3.95;;;2.40;;
81211;SDS011;70686;52.494;13.420;2023-08-08T14:02:26;2.65;;;1.92;;
81211;SDS011;70686;52.494;13.420;2023-08-08T14:04:53;2.40;;;2.17;;
81211;SDS011;70686;52.494;13.420;2023-08-08T14:07:20;2.97;;;2.40;;
81211;SDS011;70686;52.494;13.420;2023-08-08T14:09:48;4.38;;;2.25;;
81211;SDS011;70686;52.494;13.420;2023-08-08T14:12:14;4.45;;;2.63;;
81211;SDS011;70686;52.494;13.420;2023-08-08T14:14:41;2.38;;;2.00;;
81211;SDS011;70686;52.494;13.420;2023-08-08T14:17:08;3.38;;;1.90;;
81211;SDS011;70686;52.494;13.420;2023-08-08T14:19:34;3.58;;;2.05;;
81211;SDS011;70686;52.494;13.420;2023-08-08T14:22:00;2.60;;;1.80;;
81211;SDS011;70686;52.494;13.420;2023-08-08T14:24:26;2.80;;;2.10;;
81211;SDS011;70686;52.494;13.420;2023-08-08T14:26:53;2.80;;;2.08;;
81211;SDS011;70686;52.494;13.420;2023-08-08T14:29:19;3.97;;;2.53;;
81211;SDS011;70686;52.494;13.420;2023-08-08T14:31:53;3.97;;;2.00;;